createdAt,value
2022-09-12T00:00:16.138Z,75.05
2022-09-12T00:00:47.954Z,75.57
2022-09-12T00:01:21.536Z,75.60
2022-09-12T00:01:53.321Z,75.75
2022-09-12T00:02:25.440Z,76.28
2022-09-12T00:02:58.135Z,74.90
2022-09-12T00:03:29.706Z,76.03
2022-09-12T00:04:01.933Z,75.35
2022-09-12T00:04:34.558Z,75.82
2022-09-12T00:05:07.430Z,74.57
2022-09-12T00:05:41.486Z,75.07
2022-09-12T00:06:20.437Z,74.50
2022-09-12T00:06:54.301Z,73.28
2022-09-12T00:07:27.364Z,74.43
2022-09-12T00:08:00.214Z,74.22
2022-09-12T00:08:31.803Z,75.55
2022-09-12T00:09:05.214Z,74.93
2022-09-12T00:09:38.007Z,74.07
2022-09-12T00:10:09.661Z,74.85
2022-09-12T00:10:42.027Z,74.50
2022-09-12T00:11:15.006Z,74.53
2022-09-12T00:11:46.935Z,74.50
2022-09-12T00:12:18.732Z,74.57
2022-09-12T00:12:51.590Z,74.70
2022-09-12T00:13:23.254Z,75.38
2022-09-12T00:13:56.345Z,75.80
2022-09-12T00:14:29.035Z,74.78
2022-09-12T00:15:00.671Z,74.85
2022-09-12T00:15:32.422Z,73.70
2022-09-12T00:16:04.447Z,74.40
2022-09-12T00:16:38.021Z,74.75
2022-09-12T00:17:09.886Z,74.32
2022-09-12T00:17:41.512Z,74.40
2022-09-12T00:18:15.688Z,74.30
2022-09-12T00:18:47.381Z,74.60
2022-09-12T00:19:19.273Z,74.00
2022-09-12T00:19:52.275Z,74.00
2022-09-12T00:20:23.901Z,73.80
2022-09-12T00:20:55.565Z,73.00
2022-09-12T00:21:28.440Z,73.15
2022-09-12T00:22:00.233Z,73.65
2022-09-12T00:22:33.711Z,73.60
2022-09-12T00:23:05.385Z,73.43
2022-09-12T00:23:38.064Z,73.80
2022-09-12T00:24:10.511Z,74.25
2022-09-12T00:24:42.167Z,73.35
2022-09-12T00:25:14.941Z,74.45
2022-09-12T00:25:47.869Z,73.82
2022-09-12T00:26:20.493Z,73.47
2022-09-12T00:26:53.220Z,73.63
2022-09-12T00:27:25.094Z,75.20
2022-09-12T00:27:57.274Z,73.32
2022-09-12T00:28:28.871Z,73.93
2022-09-12T00:29:01.495Z,75.07
2022-09-12T00:29:33.141Z,74.10
2022-09-12T00:30:05.440Z,74.25
2022-09-12T00:30:40.345Z,73.93
2022-09-12T00:31:14.053Z,74.22
2022-09-12T00:31:45.779Z,74.20
2022-09-12T00:32:18.537Z,74.38
2022-09-12T00:32:51.609Z,74.22
2022-09-12T00:33:23.334Z,73.53
2022-09-12T00:33:57.037Z,74.07
2022-09-12T00:34:28.811Z,73.20
2022-09-12T00:35:02.772Z,74.35
2022-09-12T00:35:34.722Z,73.55
2022-09-12T00:36:08.100Z,74.35
2022-09-12T00:36:40.254Z,74.78
2022-09-12T00:37:11.882Z,74.55
2022-09-12T00:37:45.957Z,74.82
2022-09-12T00:38:17.650Z,74.45
2022-09-12T00:38:49.729Z,75.28
2022-09-12T00:39:22.682Z,74.65
2022-09-12T00:39:54.420Z,74.65
2022-09-12T00:40:27.351Z,73.95
2022-09-12T00:40:59.945Z,73.60
2022-09-12T00:41:33.105Z,75.75
2022-09-12T00:42:05.065Z,75.28
2022-09-12T00:42:37.736Z,74.95
2022-09-12T00:43:12.637Z,73.60
2022-09-12T00:43:45.393Z,74.82
2022-09-12T00:44:36.669Z,75.28
2022-09-12T00:45:11.582Z,73.82
2022-09-12T00:45:43.288Z,74.80
2022-09-12T00:46:22.175Z,74.75
2022-09-12T00:46:55.359Z,75.18
2022-09-12T00:47:27.662Z,74.50
2022-09-12T00:48:03.112Z,74.60
2022-09-12T00:48:37.543Z,74.35
2022-09-12T00:49:12.716Z,75.10
2022-09-12T00:49:47.464Z,74.47
2022-09-12T00:50:19.359Z,75.28
2022-09-12T00:50:52.308Z,75.25
2022-09-12T00:51:24.177Z,73.78
2022-09-12T00:51:58.635Z,74.53
2022-09-12T00:52:34.759Z,74.53
2022-09-12T00:53:08.587Z,74.07
2022-09-12T00:53:41.083Z,75.13
2022-09-12T00:54:14.887Z,75.07
2022-09-12T00:54:49.781Z,73.32
2022-09-12T00:55:22.519Z,74.35
2022-09-12T00:55:56.310Z,75.22
2022-09-12T00:56:28.084Z,75.75
2022-09-12T00:57:01.559Z,75.60
2022-09-12T00:57:37.076Z,75.18
2022-09-12T00:58:10.865Z,75.50
2022-09-12T00:58:44.561Z,75.28
2022-09-12T00:59:19.848Z,75.68
2022-09-12T00:59:53.832Z,75.28
2022-09-12T01:00:26.649Z,75.43
2022-09-12T01:00:59.994Z,76.95
2022-09-12T01:01:32.880Z,75.35
2022-09-12T01:02:04.802Z,76.45
2022-09-12T01:02:37.639Z,75.45
2022-09-12T01:03:11.204Z,76.10
2022-09-12T01:03:42.893Z,75.35
2022-09-12T01:04:15.807Z,76.13
2022-09-12T01:04:47.907Z,77.35
2022-09-12T01:05:20.396Z,76.70
2022-09-12T01:05:59.070Z,75.25
2022-09-12T01:06:33.372Z,75.70
2022-09-12T01:07:05.451Z,75.75
2022-09-12T01:07:40.249Z,74.88
2022-09-12T01:08:13.467Z,76.40
2022-09-12T01:08:46.979Z,76.65
2022-09-12T01:09:21.193Z,75.63
2022-09-12T01:09:53.081Z,76.03
2022-09-12T01:10:24.864Z,76.18
2022-09-12T01:10:58.061Z,76.53
2022-09-12T01:11:30.514Z,76.72
2022-09-12T01:12:03.028Z,75.78
2022-09-12T01:12:36.086Z,75.78
2022-09-12T01:13:09.122Z,76.57
2022-09-12T01:13:40.789Z,75.78
2022-09-12T01:14:14.797Z,76.82
2022-09-12T01:14:46.461Z,75.90
2022-09-12T01:15:18.247Z,76.68
2022-09-12T01:15:50.874Z,76.10
2022-09-12T01:16:22.574Z,75.72
2022-09-12T01:16:54.242Z,77.00
2022-09-12T01:17:30.418Z,77.60
2022-09-12T01:18:08.963Z,77.43
2022-09-12T01:18:55.582Z,77.07
2022-09-12T01:19:37.902Z,76.38
2022-09-12T01:20:27.254Z,76.78
2022-09-12T01:21:12.242Z,76.00
2022-09-12T01:21:47.538Z,76.30
2022-09-12T01:22:26.421Z,76.40
2022-09-12T01:23:12.098Z,77.00
2022-09-12T01:23:57.972Z,78.13
2022-09-12T01:24:56.707Z,78.45
2022-09-12T01:25:32.217Z,77.93
2022-09-12T01:26:12.588Z,77.40
2022-09-12T01:27:02.701Z,78.35
2022-09-12T01:27:41.404Z,79.00
2022-09-12T01:28:23.798Z,77.80
2022-09-12T01:29:02.989Z,78.95
2022-09-12T01:29:46.021Z,77.82
2022-09-12T01:30:21.220Z,77.80
2022-09-12T01:30:55.863Z,78.30
2022-09-12T01:31:31.595Z,78.93
2022-09-12T01:32:07.367Z,78.45
2022-09-12T01:32:45.296Z,77.50
2022-09-12T01:33:35.421Z,77.82
2022-09-12T01:34:16.665Z,78.20
2022-09-12T01:34:54.506Z,78.47
2022-09-12T01:35:32.153Z,78.40
2022-09-12T01:36:15.461Z,78.50
2022-09-12T01:36:52.847Z,77.80
2022-09-12T01:37:28.898Z,77.85
2022-09-12T01:38:07.332Z,78.85
2022-09-12T01:38:41.717Z,79.38
2022-09-12T01:39:17.812Z,79.05
2022-09-12T01:39:52.400Z,78.80
2022-09-12T01:40:28.143Z,79.38
2022-09-12T01:41:02.464Z,79.05
2022-09-12T01:41:42.488Z,78.18
2022-09-12T01:42:16.451Z,78.55
2022-09-12T01:42:52.520Z,78.15
2022-09-12T01:43:28.458Z,80.40
2022-09-12T01:44:04.243Z,79.35
2022-09-12T01:44:37.801Z,79.15
2022-09-12T01:45:15.003Z,79.43
2022-09-12T01:45:51.307Z,78.97
2022-09-12T01:46:28.636Z,79.35
2022-09-12T01:47:03.772Z,79.60
2022-09-12T01:47:39.590Z,79.10
2022-09-12T01:48:13.424Z,79.65
2022-09-12T01:48:48.026Z,79.10
2022-09-12T01:49:22.076Z,79.97
2022-09-12T01:49:58.394Z,81.05
2022-09-12T01:50:31.953Z,80.45
2022-09-12T01:51:08.478Z,79.32
2022-09-12T01:51:42.475Z,80.03
2022-09-12T01:52:16.619Z,78.53
2022-09-12T01:52:51.468Z,79.68
2022-09-12T01:53:26.365Z,78.70
2022-09-12T01:54:04.004Z,79.75
2022-09-12T01:54:39.274Z,80.25
2022-09-12T01:55:12.918Z,79.75
2022-09-12T01:55:46.420Z,79.43
2022-09-12T01:56:22.422Z,79.38
2022-09-12T01:56:56.865Z,80.60
2022-09-12T01:57:32.199Z,80.82
2022-09-12T01:58:06.913Z,79.70
2022-09-12T01:58:40.998Z,80.10
2022-09-12T01:59:18.200Z,80.03
2022-09-12T01:59:52.388Z,79.70
2022-09-12T02:01:21.860Z,79.63
2022-09-12T02:01:57.141Z,80.05
2022-09-12T02:02:33.019Z,79.97
2022-09-12T02:03:09.503Z,79.95
2022-09-12T02:03:45.026Z,80.60
2022-09-12T02:04:19.106Z,81.82
2022-09-12T02:04:53.004Z,81.15
2022-09-12T02:05:28.794Z,82.22
2022-09-12T02:06:02.156Z,81.25
2022-09-12T02:06:37.519Z,82.88
2022-09-12T02:07:13.286Z,82.97
2022-09-12T02:07:47.304Z,82.85
2022-09-12T02:08:20.845Z,81.18
2022-09-12T02:08:54.816Z,80.93
2022-09-12T02:09:29.300Z,82.72
2022-09-12T02:10:03.176Z,81.13
2022-09-12T02:10:39.153Z,80.90
2022-09-12T02:11:11.670Z,84.28
2022-09-12T02:11:44.509Z,83.70
2022-09-12T02:12:19.639Z,83.60
2022-09-12T02:12:53.764Z,83.90
2022-09-12T02:13:29.731Z,83.22
2022-09-12T02:14:03.556Z,84.32
2022-09-12T02:14:38.137Z,82.85
2022-09-12T02:15:10.064Z,82.78
2022-09-12T02:15:44.438Z,83.35
2022-09-12T02:16:18.920Z,82.95
2022-09-12T02:16:54.012Z,83.18
2022-09-12T02:17:27.333Z,82.35
2022-09-12T02:18:01.211Z,83.40
2022-09-12T02:18:33.992Z,84.53
2022-09-12T02:19:08.666Z,83.55
2022-09-12T02:19:42.299Z,83.40
2022-09-12T02:20:31.131Z,82.68
2022-09-12T02:21:09.420Z,84.55
2022-09-12T02:21:42.433Z,84.63
2022-09-12T02:22:15.746Z,84.22
2022-09-12T02:22:49.374Z,84.03
2022-09-12T02:23:22.652Z,85.15
2022-09-12T02:23:55.710Z,85.65
2022-09-12T02:24:30.129Z,83.45
2022-09-12T02:25:04.122Z,84.75
2022-09-12T02:25:37.907Z,84.05
2022-09-12T02:26:14.593Z,83.47
2022-09-12T02:26:49.164Z,84.90
2022-09-12T02:27:22.110Z,84.60
2022-09-12T02:27:55.616Z,84.35
2022-09-12T02:28:30.175Z,84.88
2022-09-12T02:29:02.062Z,83.05
2022-09-12T02:29:33.694Z,84.13
2022-09-12T02:30:07.242Z,84.85
2022-09-12T02:30:41.366Z,83.88
2022-09-12T02:31:14.934Z,85.90
2022-09-12T02:31:48.655Z,84.38
2022-09-12T02:32:28.406Z,83.03
2022-09-12T02:33:01.601Z,82.75
2022-09-12T02:33:39.818Z,82.88
2022-09-12T02:34:20.045Z,82.53
2022-09-12T02:34:55.170Z,83.85
2022-09-12T02:35:32.962Z,84.15
2022-09-12T02:36:13.127Z,84.50
2022-09-12T02:36:50.102Z,83.13
2022-09-12T02:37:26.765Z,84.50
2022-09-12T02:38:02.442Z,83.97
2022-09-12T02:38:38.301Z,83.95
2022-09-12T02:39:10.006Z,85.57
2022-09-12T02:39:45.301Z,85.22
2022-09-12T02:40:17.841Z,84.90
2022-09-12T02:40:49.556Z,85.30
2022-09-12T02:41:22.475Z,85.32
2022-09-12T02:41:55.694Z,84.35
2022-09-12T02:42:27.323Z,86.05
2022-09-12T02:43:00.227Z,83.25
2022-09-12T02:43:32.002Z,84.18
2022-09-12T02:44:04.191Z,84.57
2022-09-12T02:44:37.172Z,85.55
2022-09-12T02:45:09.901Z,85.05
2022-09-12T02:45:41.647Z,85.07
2022-09-12T02:46:16.659Z,83.50
2022-09-12T02:46:50.041Z,84.82
2022-09-12T02:47:26.794Z,84.95
2022-09-12T02:48:01.436Z,83.85
2022-09-12T02:48:35.227Z,82.97
2022-09-12T02:49:09.340Z,83.95
2022-09-12T02:49:42.215Z,84.93
2022-09-12T02:50:13.837Z,85.60
2022-09-12T02:50:45.910Z,85.05
2022-09-12T02:51:22.907Z,83.78
2022-09-12T02:51:56.739Z,84.70
2022-09-12T02:52:28.918Z,84.72
2022-09-12T02:53:04.688Z,84.20
2022-09-12T02:53:37.970Z,84.80
2022-09-12T02:54:10.249Z,83.82
2022-09-12T02:54:42.689Z,85.40
2022-09-12T02:55:16.438Z,84.63
2022-09-12T02:55:48.328Z,84.18
2022-09-12T02:56:23.795Z,83.47
2022-09-12T02:56:56.560Z,85.45
2022-09-12T02:57:28.261Z,85.28
2022-09-12T02:58:00.586Z,83.20
2022-09-12T02:58:33.453Z,83.80
2022-09-12T02:59:05.955Z,85.10
2022-09-12T02:59:37.671Z,83.65
2022-09-12T03:00:10.651Z,83.60
2022-09-12T03:00:46.728Z,83.97
2022-09-12T03:01:23.107Z,84.28
2022-09-12T03:02:05.095Z,83.07
2022-09-12T03:02:47.251Z,83.57
2022-09-12T03:03:33.238Z,83.88
2022-09-12T03:04:17.402Z,83.43
2022-09-12T03:04:57.582Z,83.25
2022-09-12T03:05:32.576Z,84.53
2022-09-12T03:06:08.600Z,83.47
2022-09-12T03:06:48.938Z,84.57
2022-09-12T03:07:28.028Z,84.80
2022-09-12T03:08:14.642Z,84.85
2022-09-12T03:09:01.428Z,85.78
2022-09-12T03:09:36.665Z,84.28
2022-09-12T03:10:13.384Z,86.07
2022-09-12T03:10:53.687Z,83.90
2022-09-12T03:11:28.536Z,83.78
2022-09-12T03:12:08.532Z,83.50
2022-09-12T03:12:47.019Z,83.80
2022-09-12T03:13:21.662Z,84.03
2022-09-12T03:13:57.980Z,84.35
2022-09-12T03:14:42.375Z,83.45
2022-09-12T03:15:19.522Z,85.05
2022-09-12T03:15:58.910Z,84.03
2022-09-12T03:16:34.168Z,83.30
2022-09-12T03:17:11.210Z,84.60
2022-09-12T03:17:55.698Z,84.45
2022-09-12T03:18:32.367Z,83.57
2022-09-12T03:19:10.721Z,83.63
2022-09-12T03:19:49.265Z,84.38
2022-09-12T03:20:24.763Z,83.75
2022-09-12T03:21:00.406Z,82.43
2022-09-12T03:21:34.000Z,83.35
2022-09-12T03:22:09.580Z,82.93
2022-09-12T03:22:51.192Z,84.13
2022-09-12T03:23:26.844Z,84.60
2022-09-12T03:24:05.456Z,83.43
2022-09-12T03:24:39.531Z,83.43
2022-09-12T03:25:14.345Z,84.10
2022-09-12T03:25:49.013Z,83.75
2022-09-12T03:26:24.298Z,84.55
2022-09-12T03:26:58.719Z,83.82
2022-09-12T03:27:33.505Z,84.30
2022-09-12T03:28:09.192Z,83.70
2022-09-12T03:28:42.394Z,83.28
2022-09-12T03:29:15.196Z,83.47
2022-09-12T03:29:48.907Z,83.30
2022-09-12T03:30:20.793Z,83.85
2022-09-12T03:30:54.703Z,82.85
2022-09-12T03:31:27.709Z,83.18
2022-09-12T03:31:59.510Z,82.57
2022-09-12T03:32:40.422Z,82.93
2022-09-12T03:33:14.995Z,84.20
2022-09-12T03:33:46.797Z,83.78
2022-09-12T03:34:18.526Z,84.18
2022-09-12T03:34:51.135Z,83.13
2022-09-12T03:35:23.694Z,83.93
2022-09-12T03:35:55.646Z,84.07
2022-09-12T03:36:29.677Z,82.57
2022-09-12T03:37:01.341Z,83.13
2022-09-12T03:37:32.956Z,83.40
2022-09-12T03:38:07.961Z,80.88
2022-09-12T03:38:39.577Z,82.90
2022-09-12T03:39:11.377Z,82.68
2022-09-12T03:39:44.127Z,83.30
2022-09-12T03:40:15.902Z,82.70
2022-09-12T03:40:51.388Z,81.70
2022-09-12T03:41:26.701Z,82.68
2022-09-12T03:41:58.318Z,81.28
2022-09-12T03:42:30.079Z,83.90
2022-09-12T03:43:02.675Z,82.32
2022-09-12T03:43:34.264Z,82.25
2022-09-12T03:44:05.919Z,82.38
2022-09-12T03:44:38.542Z,82.47
2022-09-12T03:45:10.782Z,82.03
2022-09-12T03:45:42.449Z,82.68
2022-09-12T03:46:15.228Z,83.05
2022-09-12T03:46:46.847Z,81.50
2022-09-12T03:47:18.449Z,82.22
2022-09-12T03:47:51.073Z,82.45
2022-09-12T03:48:24.135Z,82.03
2022-09-12T03:48:55.777Z,81.75
2022-09-12T03:49:28.357Z,82.43
2022-09-12T03:50:00.005Z,81.68
2022-09-12T03:50:31.713Z,81.78
2022-09-12T03:51:04.829Z,81.15
2022-09-12T03:51:36.516Z,82.35
2022-09-12T03:52:08.136Z,80.97
2022-09-12T03:52:40.773Z,82.63
2022-09-12T03:53:16.941Z,82.70
2022-09-12T03:53:48.957Z,82.47
2022-09-12T03:54:21.829Z,80.88
2022-09-12T03:54:53.481Z,82.70
2022-09-12T03:55:26.647Z,81.18
2022-09-12T03:55:59.453Z,82.75
2022-09-12T03:56:31.453Z,82.63
2022-09-12T03:57:03.149Z,82.15
2022-09-12T03:57:35.725Z,82.85
2022-09-12T03:58:07.383Z,81.53
2022-09-12T03:58:39.501Z,82.95
2022-09-12T03:59:12.142Z,83.20
2022-09-12T03:59:43.873Z,81.85
2022-09-12T04:00:19.747Z,81.95
2022-09-12T04:00:52.721Z,81.47
2022-09-12T04:01:24.412Z,82.55
2022-09-12T04:01:56.237Z,83.72
2022-09-12T04:02:27.998Z,82.35
2022-09-12T04:03:00.681Z,82.28
2022-09-12T04:03:36.373Z,84.47
2022-09-12T04:04:09.804Z,80.85
2022-09-12T04:04:42.633Z,83.57
2022-09-12T04:05:14.440Z,82.28
2022-09-12T04:05:47.745Z,81.43
2022-09-12T04:06:21.535Z,80.82
2022-09-12T04:06:53.379Z,82.53
2022-09-12T04:07:26.103Z,83.68
2022-09-12T04:07:57.713Z,82.78
2022-09-12T04:08:29.313Z,83.15
2022-09-12T04:09:01.999Z,82.75
2022-09-12T04:09:33.654Z,82.47
2022-09-12T04:10:05.820Z,83.40
2022-09-12T04:10:38.554Z,83.50
2022-09-12T04:11:11.081Z,82.32
2022-09-12T04:11:42.795Z,83.20
2022-09-12T04:12:15.449Z,82.47
2022-09-12T04:12:47.106Z,83.22
2022-09-12T04:13:18.740Z,83.65
2022-09-12T04:13:51.614Z,84.25
2022-09-12T04:14:23.513Z,83.80
2022-09-12T04:14:55.213Z,83.47
2022-09-12T04:15:27.848Z,82.55
2022-09-12T04:15:59.893Z,82.38
2022-09-12T04:16:32.339Z,83.38
2022-09-12T04:17:05.223Z,81.93
2022-09-12T04:17:36.857Z,82.95
2022-09-12T04:18:08.507Z,83.30
2022-09-12T04:18:41.652Z,81.57
2022-09-12T04:19:14.409Z,82.28
2022-09-12T04:19:45.994Z,83.00
2022-09-12T04:20:18.169Z,83.20
2022-09-12T04:20:50.731Z,81.95
2022-09-12T04:21:22.561Z,82.30
2022-09-12T04:21:54.223Z,82.80
2022-09-12T04:22:26.811Z,82.45
2022-09-12T04:22:58.433Z,84.38
2022-09-12T04:23:30.154Z,83.22
2022-09-12T04:24:03.065Z,82.05
2022-09-12T04:24:34.678Z,81.63
2022-09-12T04:25:06.993Z,82.45
2022-09-12T04:25:39.613Z,82.47
2022-09-12T04:26:11.765Z,83.45
2022-09-12T04:26:43.346Z,82.13
2022-09-12T04:27:16.048Z,83.93
2022-09-12T04:27:47.737Z,82.43
2022-09-12T04:28:19.379Z,82.97
2022-09-12T04:28:54.715Z,83.80
2022-09-12T04:29:26.417Z,83.68
2022-09-12T04:29:58.350Z,83.10
2022-09-12T04:30:30.990Z,84.78
2022-09-12T04:31:04.421Z,82.60
2022-09-12T04:31:36.421Z,83.57
2022-09-12T04:32:09.011Z,82.70
2022-09-12T04:32:41.626Z,83.25
2022-09-12T04:33:13.301Z,82.88
2022-09-12T04:33:47.672Z,82.70
2022-09-12T04:34:19.563Z,83.05
2022-09-12T04:34:52.485Z,83.00
2022-09-12T04:35:25.155Z,85.15
2022-09-12T04:35:56.882Z,84.10
2022-09-12T04:36:29.169Z,82.47
2022-09-12T04:37:01.967Z,83.72
2022-09-12T04:37:33.678Z,82.47
2022-09-12T04:38:05.335Z,82.13
2022-09-12T04:38:38.053Z,83.22
2022-09-12T04:39:10.435Z,82.93
2022-09-12T04:39:42.074Z,83.55
2022-09-12T04:40:14.722Z,82.93
2022-09-12T04:40:46.459Z,82.13
2022-09-12T04:41:19.854Z,82.97
2022-09-12T04:41:52.784Z,82.85
2022-09-12T04:42:24.709Z,82.38
2022-09-12T04:42:56.347Z,82.88
2022-09-12T04:43:29.019Z,82.97
2022-09-12T04:44:02.310Z,82.22
2022-09-12T04:44:33.946Z,83.93
2022-09-12T04:45:07.661Z,84.10
2022-09-12T04:45:39.310Z,83.32
2022-09-12T04:46:11.717Z,83.18
2022-09-12T04:46:45.569Z,82.88
2022-09-12T04:47:17.243Z,82.00
2022-09-12T04:47:48.849Z,82.47
2022-09-12T04:48:21.729Z,83.60
2022-09-12T04:48:56.998Z,81.55
2022-09-12T04:49:28.770Z,84.10
2022-09-12T04:50:01.454Z,84.32
2022-09-12T04:50:33.208Z,81.22
2022-09-12T04:51:08.995Z,82.68
2022-09-12T04:51:42.042Z,83.03
2022-09-12T04:52:13.776Z,83.40
2022-09-12T04:52:49.253Z,82.32
2022-09-12T04:53:21.949Z,83.22
2022-09-12T04:53:54.981Z,84.47
2022-09-12T04:54:27.536Z,84.05
2022-09-12T04:54:59.227Z,82.03
2022-09-12T04:55:30.825Z,82.38
2022-09-12T04:56:03.079Z,83.47
2022-09-12T04:56:38.667Z,83.35
2022-09-12T04:57:10.520Z,84.65
2022-09-12T04:57:42.153Z,84.63
2022-09-12T04:58:14.887Z,83.15
2022-09-12T04:58:46.913Z,84.43
2022-09-12T04:59:19.782Z,83.90
2022-09-12T04:59:52.607Z,82.50
2022-09-12T05:00:27.230Z,83.20
2022-09-12T05:01:03.847Z,82.40
2022-09-12T05:01:36.922Z,82.07
2022-09-12T05:02:09.042Z,82.72
2022-09-12T05:02:40.872Z,82.78
2022-09-12T05:03:13.461Z,82.78
2022-09-12T05:03:46.279Z,82.18
2022-09-12T05:04:19.607Z,83.63
2022-09-12T05:04:52.617Z,82.90
2022-09-12T05:05:24.333Z,83.32
2022-09-12T05:05:56.641Z,82.75
2022-09-12T05:06:30.046Z,81.95
2022-09-12T05:07:03.020Z,82.80
2022-09-12T05:07:34.670Z,82.85
2022-09-12T05:08:06.289Z,82.05
2022-09-12T05:08:38.437Z,83.00
2022-09-12T05:09:12.335Z,82.78
2022-09-12T05:09:43.976Z,83.25
2022-09-12T05:10:15.791Z,82.97
2022-09-12T05:10:48.424Z,84.13
2022-09-12T05:11:24.744Z,81.90
2022-09-12T05:12:05.871Z,82.10
2022-09-12T05:12:37.938Z,84.18
2022-09-12T05:13:09.691Z,83.13
2022-09-12T05:13:42.278Z,83.78
2022-09-12T05:14:14.095Z,82.97
2022-09-12T05:14:45.872Z,84.65
2022-09-12T05:15:18.818Z,83.88
2022-09-12T05:15:59.972Z,82.97
2022-09-12T05:16:33.164Z,82.75
2022-09-12T05:17:06.020Z,84.53
2022-09-12T05:17:37.701Z,84.50
2022-09-12T05:18:10.334Z,84.18
2022-09-12T05:18:42.408Z,83.85
2022-09-12T05:19:14.256Z,84.18
2022-09-12T05:19:49.464Z,84.25
2022-09-12T05:20:21.060Z,85.20
2022-09-12T05:20:52.820Z,84.00
2022-09-12T05:21:25.754Z,83.78
2022-09-12T05:21:57.666Z,83.38
2022-09-12T05:22:30.307Z,83.47
2022-09-12T05:23:02.040Z,83.28
2022-09-12T05:23:33.940Z,83.75
2022-09-12T05:24:06.680Z,84.93
2022-09-12T05:24:39.685Z,84.20
2022-09-12T05:25:11.315Z,83.53
2022-09-12T05:25:48.541Z,85.15
2022-09-12T05:26:21.722Z,85.82
2022-09-12T05:26:53.493Z,84.88
2022-09-12T05:27:26.084Z,84.20
2022-09-12T05:27:57.825Z,86.05
2022-09-12T05:28:30.810Z,85.78
2022-09-12T05:29:05.539Z,83.88
2022-09-12T05:29:37.227Z,84.00
2022-09-12T05:30:09.657Z,82.88
2022-09-12T05:30:42.378Z,83.40
2022-09-12T05:31:15.425Z,84.53
2022-09-12T05:31:52.267Z,83.38
2022-09-12T05:32:24.032Z,82.72
2022-09-12T05:32:56.188Z,82.93
2022-09-12T05:33:27.914Z,83.35
2022-09-12T05:34:00.529Z,84.45
2022-09-12T05:34:32.208Z,84.40
2022-09-12T05:35:05.524Z,84.18
2022-09-12T05:35:38.689Z,84.28
2022-09-12T05:36:11.472Z,84.00
2022-09-12T05:36:44.084Z,83.57
2022-09-12T05:37:15.689Z,84.63
2022-09-12T05:37:47.382Z,85.18
2022-09-12T05:38:19.251Z,82.45
2022-09-12T05:38:52.030Z,83.72
2022-09-12T05:39:24.592Z,83.88
2022-09-12T05:39:56.514Z,83.10
2022-09-12T05:40:29.107Z,83.95
2022-09-12T05:41:04.248Z,84.28
2022-09-12T05:41:37.149Z,84.10
2022-09-12T05:42:09.222Z,84.00
2022-09-12T05:42:40.849Z,82.95
2022-09-12T05:43:13.753Z,83.20
2022-09-12T05:43:46.228Z,83.35
2022-09-12T05:44:18.819Z,83.10
2022-09-12T05:44:50.554Z,83.40
2022-09-12T05:45:22.202Z,84.07
2022-09-12T05:46:01.102Z,83.80
2022-09-12T05:46:36.182Z,85.25
2022-09-12T05:47:07.785Z,83.80
2022-09-12T05:47:40.405Z,85.20
2022-09-12T05:48:12.016Z,84.82
2022-09-12T05:48:44.807Z,83.95
2022-09-12T05:49:17.533Z,85.43
2022-09-12T05:49:51.503Z,84.32
2022-09-12T05:50:25.531Z,83.32
2022-09-12T05:51:02.509Z,83.78
2022-09-12T05:51:35.000Z,84.63
2022-09-12T05:52:07.710Z,85.57
2022-09-12T05:52:39.304Z,82.88
2022-09-12T05:53:10.912Z,84.85
2022-09-12T05:53:43.530Z,84.85
2022-09-12T05:54:16.124Z,84.90
2022-09-12T05:54:49.318Z,85.20
2022-09-12T05:55:21.005Z,84.97
2022-09-12T05:56:01.687Z,85.80
2022-09-12T05:56:35.618Z,85.80
2022-09-12T05:57:07.221Z,84.30
2022-09-12T05:57:39.430Z,85.95
2022-09-12T05:58:12.028Z,86.28
2022-09-12T05:58:44.805Z,85.18
2022-09-12T05:59:17.147Z,86.93
2022-09-12T05:59:50.756Z,84.57
2022-09-12T06:00:22.424Z,85.97
2022-09-12T06:00:54.019Z,86.05
2022-09-12T06:01:27.823Z,85.35
2022-09-12T06:02:00.299Z,84.57
2022-09-12T06:02:32.050Z,85.38
2022-09-12T06:03:04.648Z,86.20
2022-09-12T06:03:37.315Z,84.75
2022-09-12T06:04:08.995Z,85.65
2022-09-12T06:04:41.959Z,85.93
2022-09-12T06:05:13.604Z,85.97
2022-09-12T06:05:50.479Z,85.85
2022-09-12T06:06:24.778Z,85.53
2022-09-12T06:06:56.517Z,85.95
2022-09-12T06:07:28.161Z,85.25
2022-09-12T06:08:00.770Z,83.47
2022-09-12T06:08:36.305Z,85.45
2022-09-12T06:09:08.354Z,87.20
2022-09-12T06:09:40.990Z,87.30
2022-09-12T06:10:13.226Z,86.25
2022-09-12T06:10:44.942Z,86.20
2022-09-12T06:11:17.562Z,84.90
2022-09-12T06:11:50.320Z,86.82
2022-09-12T06:12:21.934Z,85.78
2022-09-12T06:12:53.873Z,85.18
2022-09-12T06:13:26.511Z,86.35
2022-09-12T06:13:58.504Z,85.68
2022-09-12T06:14:31.604Z,86.22
2022-09-12T06:15:03.894Z,87.07
2022-09-12T06:15:35.547Z,85.47
2022-09-12T06:16:09.586Z,85.57
2022-09-12T06:16:41.510Z,86.72
2022-09-12T06:17:14.293Z,86.60
2022-09-12T06:17:51.372Z,87.18
2022-09-12T06:18:26.110Z,87.10
2022-09-12T06:19:00.770Z,86.68
2022-09-12T06:19:32.406Z,86.53
2022-09-12T06:20:06.996Z,87.18
2022-09-12T06:20:39.646Z,86.32
2022-09-12T06:21:12.974Z,86.97
2022-09-12T06:21:45.306Z,86.20
2022-09-12T06:22:18.020Z,86.75
2022-09-12T06:22:53.181Z,86.53
2022-09-12T06:23:27.529Z,85.97
2022-09-12T06:24:00.354Z,87.18
2022-09-12T06:24:31.984Z,87.10
2022-09-12T06:25:05.432Z,87.22
2022-09-12T06:25:47.048Z,88.93
2022-09-12T06:26:21.560Z,85.85
2022-09-12T06:26:54.533Z,87.97
2022-09-12T06:27:26.627Z,86.72
2022-09-12T06:27:58.308Z,87.10
2022-09-12T06:28:31.093Z,86.13
2022-09-12T06:29:05.349Z,85.50
2022-09-12T06:29:37.250Z,87.57
2022-09-12T06:30:10.532Z,86.90
2022-09-12T06:30:43.109Z,85.82
2022-09-12T06:31:15.901Z,88.25
2022-09-12T06:31:48.738Z,85.30
2022-09-12T06:32:20.483Z,85.93
2022-09-12T06:32:56.842Z,84.70
2022-09-12T06:33:29.414Z,86.22
2022-09-12T06:34:04.313Z,87.20
2022-09-12T06:34:36.910Z,85.97
2022-09-12T06:35:08.853Z,85.55
2022-09-12T06:35:40.982Z,85.68
2022-09-12T06:36:16.120Z,83.63
2022-09-12T06:36:48.560Z,85.65
2022-09-12T06:37:20.178Z,86.25
2022-09-12T06:37:52.886Z,87.55
2022-09-12T06:38:24.535Z,85.72
2022-09-12T06:38:57.179Z,86.05
2022-09-12T06:39:29.808Z,85.55
2022-09-12T06:40:02.249Z,86.97
2022-09-12T06:40:33.999Z,84.88
2022-09-12T06:41:07.442Z,83.82
2022-09-12T06:41:43.104Z,84.07
2022-09-12T06:42:16.838Z,86.03
2022-09-12T06:42:59.208Z,85.15
2022-09-12T06:43:39.244Z,85.30
2022-09-12T06:44:13.080Z,84.90
2022-09-12T06:44:45.034Z,85.82
2022-09-12T06:45:19.962Z,85.40
2022-09-12T06:45:51.724Z,83.80
2022-09-12T06:46:23.720Z,84.43
2022-09-12T06:47:02.548Z,83.85
2022-09-12T06:47:34.316Z,83.55
2022-09-12T06:48:06.198Z,84.85
2022-09-12T06:48:41.730Z,84.28
2022-09-12T06:49:14.790Z,84.50
2022-09-12T06:49:49.286Z,83.70
2022-09-12T06:50:21.951Z,83.68
2022-09-12T06:50:58.823Z,84.00
2022-09-12T06:51:36.343Z,84.35
2022-09-12T06:52:09.255Z,85.28
2022-09-12T06:52:40.964Z,83.88
2022-09-12T06:53:12.814Z,84.20
2022-09-12T06:53:45.876Z,84.78
2022-09-12T06:55:29.981Z,83.13
2022-09-12T06:56:02.486Z,83.55
2022-09-12T06:56:35.158Z,83.72
2022-09-12T06:57:07.311Z,82.75
2022-09-12T06:57:38.967Z,84.07
2022-09-12T06:58:11.585Z,83.47
2022-09-12T06:58:46.854Z,85.25
2022-09-12T06:59:22.908Z,83.57
2022-09-12T06:59:55.324Z,84.68
2022-09-12T07:00:27.986Z,84.18
2022-09-12T07:01:03.775Z,84.60
2022-09-12T07:01:35.532Z,84.63
2022-09-12T07:02:09.987Z,83.30
2022-09-12T07:02:41.930Z,83.63
2022-09-12T07:03:13.539Z,82.93
2022-09-12T07:03:48.718Z,84.28
2022-09-12T07:04:20.407Z,83.93
2022-09-12T07:04:52.307Z,83.00
2022-09-12T07:05:24.932Z,81.10
2022-09-12T07:05:56.698Z,83.80
2022-09-12T07:06:32.251Z,83.13
2022-09-12T07:07:05.794Z,82.85
2022-09-12T07:07:38.059Z,82.88
2022-09-12T07:08:13.034Z,81.90
2022-09-12T07:08:44.754Z,82.13
2022-09-12T07:09:17.816Z,82.63
2022-09-12T07:09:49.487Z,83.90
2022-09-12T07:10:22.412Z,81.75
2022-09-12T07:10:55.287Z,81.95
2022-09-12T07:11:27.748Z,82.18
2022-09-12T07:12:03.333Z,82.60
2022-09-12T07:12:34.964Z,81.40
2022-09-12T07:13:06.560Z,82.60
2022-09-12T07:13:39.184Z,81.55
2022-09-12T07:14:12.078Z,80.45
2022-09-12T07:14:44.685Z,81.60
2022-09-12T07:15:17.354Z,82.53
2022-09-12T07:15:49.460Z,82.10
2022-09-12T07:16:22.123Z,82.35
2022-09-12T07:16:53.945Z,81.07
2022-09-12T07:17:26.662Z,82.25
2022-09-12T07:17:58.262Z,82.00